メインページ
METAR-TAF:

METAR-TAF

空港 :

メヘラーバード国際空港

テヘラン, イラン

緯度: 35-41N, 経度: 051-21E, 海抜: 1204m

現時点の気象観測

当レポートは31分前の09:00(UTC)に作成
南東の風 8kt
気温 11°C
湿度 50%
気圧 1025 hPa
視程: 7000m
高度4000ftの雲はほとんどない

METAR: OIII 190900Z 14008KT 7000 FEW040 11/01 Q1025 A3027 NOSIG

時間: 13:01 (09:31 UTC)

予報

当レポートは4時間1分前の05:30(UTC)に作成
予報は19日の 06時(UTC)から 20日の 12時(UTC)まで有効
東/南東の風 6kt
視程: 8000m

TAF: OIII 190530Z 1906/2012 11003MPS 8000 NSC

4,000以上の空港の気象観測と天気予報(METAR報とTAF報)

利用可能な観測所は地図上に黄色い丸と赤い丸で示す。

丸の上にカーソルを重ねると観測所名を参照できる。

次にクリックすると気象観測と天気予報を参照できる。

マップの切り替え:黒色「×」印の緑ボタンをクリックして拡大、「-」印の緑ボタンをクリックして縮小、緑色の三角印をクリックして隣りの地図に切り替え


METAR-TAF: